sensor_id;sensor_type;location;lat;lon;timestamp;pressure;altitude;pressure_sealevel;temperature;humidity
74561;BME280;62979;55.720;37.606;2023-06-14T00:00:16;100135.00;;;20.21;35.84
74561;BME280;62979;55.720;37.606;2023-06-14T00:02:43;100136.13;;;20.17;35.90
74561;BME280;62979;55.720;37.606;2023-06-14T00:05:10;100131.94;;;20.13;36.05
74561;BME280;62979;55.720;37.606;2023-06-14T00:07:39;100132.78;;;20.14;35.63
74561;BME280;62979;55.720;37.606;2023-06-14T00:10:11;100134.66;;;20.12;35.81
74561;BME280;62979;55.720;37.606;2023-06-14T00:12:38;100134.97;;;20.07;36.25
74561;BME280;62979;55.720;37.606;2023-06-14T00:15:07;100138.28;;;20.10;36.23
74561;BME280;62979;55.720;37.606;2023-06-14T00:17:35;100134.34;;;20.02;36.52
74561;BME280;62979;55.720;37.606;2023-06-14T00:20:05;100143.91;;;20.04;36.21
74561;BME280;62979;55.720;37.606;2023-06-14T00:22:33;100141.56;;;20.00;36.45
74561;BME280;62979;55.720;37.606;2023-06-14T00:25:02;100151.47;;;19.96;36.46
74561;BME280;62979;55.720;37.606;2023-06-14T00:27:30;100138.56;;;19.90;36.72
74561;BME280;62979;55.720;37.606;2023-06-14T00:29:57;100145.16;;;19.83;36.89
74561;BME280;62979;55.720;37.606;2023-06-14T00:32:24;100141.63;;;19.82;36.92
74561;BME280;62979;55.720;37.606;2023-06-14T00:34:53;100143.34;;;19.83;36.75
74561;BME280;62979;55.720;37.606;2023-06-14T00:37:20;100140.00;;;19.80;36.87
74561;BME280;62979;55.720;37.606;2023-06-14T00:39:47;100141.72;;;19.81;37.13
74561;BME280;62979;55.720;37.606;2023-06-14T00:42:23;100136.41;;;19.81;37.17
74561;BME280;62979;55.720;37.606;2023-06-14T00:44:52;100139.25;;;19.78;37.04
74561;BME280;62979;55.720;37.606;2023-06-14T00:47:20;100139.41;;;19.75;37.19
74561;BME280;62979;55.720;37.606;2023-06-14T00:49:48;100129.81;;;19.72;37.21
74561;BME280;62979;55.720;37.606;2023-06-14T00:52:17;100139.66;;;19.70;37.41
74561;BME280;62979;55.720;37.606;2023-06-14T00:54:44;100146.38;;;19.60;37.75
74561;BME280;62979;55.720;37.606;2023-06-14T00:57:12;100147.31;;;19.59;37.88
74561;BME280;62979;55.720;37.606;2023-06-14T00:59:43;100141.91;;;19.60;37.50
74561;BME280;62979;55.720;37.606;2023-06-14T01:02:14;100132.25;;;19.59;37.72
74561;BME280;62979;55.720;37.606;2023-06-14T01:04:43;100134.56;;;19.50;37.80
74561;BME280;62979;55.720;37.606;2023-06-14T01:07:21;100144.13;;;19.52;37.71
74561;BME280;62979;55.720;37.606;2023-06-14T01:10:06;100139.19;;;19.46;38.14
74561;BME280;62979;55.720;37.606;2023-06-14T01:12:52;100141.38;;;19.38;38.38
74561;BME280;62979;55.720;37.606;2023-06-14T01:15:25;100132.81;;;19.33;38.49
74561;BME280;62979;55.720;37.606;2023-06-14T01:17:55;100132.97;;;19.30;38.48
74561;BME280;62979;55.720;37.606;2023-06-14T01:20:29;100132.50;;;19.21;38.53
74561;BME280;62979;55.720;37.606;2023-06-14T01:22:59;100132.44;;;19.23;38.45
74561;BME280;62979;55.720;37.606;2023-06-14T01:25:27;100139.38;;;19.25;38.36
74561;BME280;62979;55.720;37.606;2023-06-14T01:27:58;100140.47;;;19.21;38.56
74561;BME280;62979;55.720;37.606;2023-06-14T01:30:30;100149.91;;;19.27;38.46
74561;BME280;62979;55.720;37.606;2023-06-14T01:32:58;100146.06;;;19.33;38.39
74561;BME280;62979;55.720;37.606;2023-06-14T01:35:26;100141.13;;;19.42;37.79
74561;BME280;62979;55.720;37.606;2023-06-14T01:37:53;100147.47;;;19.40;38.32
74561;BME280;62979;55.720;37.606;2023-06-14T01:40:22;100143.25;;;19.36;38.41
74561;BME280;62979;55.720;37.606;2023-06-14T01:42:51;100152.75;;;19.40;38.36
74561;BME280;62979;55.720;37.606;2023-06-14T01:45:20;100149.31;;;19.38;38.54
74561;BME280;62979;55.720;37.606;2023-06-14T01:47:48;100149.31;;;19.38;38.30
74561;BME280;62979;55.720;37.606;2023-06-14T01:50:18;100152.94;;;19.37;38.12
74561;BME280;62979;55.720;37.606;2023-06-14T01:52:46;100156.19;;;19.42;38.27
74561;BME280;62979;55.720;37.606;2023-06-14T01:55:13;100157.75;;;19.46;38.29
74561;BME280;62979;55.720;37.606;2023-06-14T01:57:44;100158.34;;;19.51;38.31
74561;BME280;62979;55.720;37.606;2023-06-14T02:00:12;100148.78;;;19.49;38.48
74561;BME280;62979;55.720;37.606;2023-06-14T02:02:41;100149.69;;;19.48;38.35
74561;BME280;62979;55.720;37.606;2023-06-14T02:05:08;100150.53;;;19.48;38.39
74561;BME280;62979;55.720;37.606;2023-06-14T02:07:35;100147.81;;;19.50;38.60
74561;BME280;62979;55.720;37.606;2023-06-14T02:10:03;100146.78;;;19.52;38.50
74561;BME280;62979;55.720;37.606;2023-06-14T02:12:30;100142.44;;;19.51;38.54
74561;BME280;62979;55.720;37.606;2023-06-14T02:14:58;100144.91;;;19.54;38.83
74561;BME280;62979;55.720;37.606;2023-06-14T02:17:25;100138.66;;;19.55;39.04
74561;BME280;62979;55.720;37.606;2023-06-14T02:19:52;100143.22;;;19.53;39.01
74561;BME280;62979;55.720;37.606;2023-06-14T02:22:21;100134.47;;;19.51;38.70
74561;BME280;62979;55.720;37.606;2023-06-14T02:24:48;100139.63;;;19.54;38.43
74561;BME280;62979;55.720;37.606;2023-06-14T02:27:15;100132.75;;;19.50;38.45
74561;BME280;62979;55.720;37.606;2023-06-14T02:29:42;100141.50;;;19.52;38.49
74561;BME280;62979;55.720;37.606;2023-06-14T02:32:11;100141.78;;;19.63;38.42
74561;BME280;62979;55.720;37.606;2023-06-14T02:34:38;100147.84;;;19.65;38.00
74561;BME280;62979;55.720;37.606;2023-06-14T02:37:06;100148.84;;;19.63;38.27
74561;BME280;62979;55.720;37.606;2023-06-14T02:39:33;100144.25;;;19.66;38.12
74561;BME280;62979;55.720;37.606;2023-06-14T02:42:01;100144.25;;;19.66;38.59
74561;BME280;62979;55.720;37.606;2023-06-14T02:44:29;100145.72;;;19.72;38.51
74561;BME280;62979;55.720;37.606;2023-06-14T02:46:57;100147.34;;;19.75;38.47
74561;BME280;62979;55.720;37.606;2023-06-14T02:49:27;100149.88;;;19.78;38.55
74561;BME280;62979;55.720;37.606;2023-06-14T02:51:55;100153.97;;;19.83;38.29
74561;BME280;62979;55.720;37.606;2023-06-14T02:54:22;100147.69;;;19.84;38.43
74561;BME280;62979;55.720;37.606;2023-06-14T02:56:49;100155.94;;;19.96;38.06
74561;BME280;62979;55.720;37.606;2023-06-14T02:59:16;100156.59;;;19.99;38.08
74561;BME280;62979;55.720;37.606;2023-06-14T03:01:44;100165.53;;;19.98;38.15
74561;BME280;62979;55.720;37.606;2023-06-14T03:04:11;100161.59;;;20.05;37.85
74561;BME280;62979;55.720;37.606;2023-06-14T03:06:39;100164.75;;;20.12;37.71
74561;BME280;62979;55.720;37.606;2023-06-14T03:09:09;100158.31;;;20.16;37.69
74561;BME280;62979;55.720;37.606;2023-06-14T03:11:36;100158.22;;;20.18;37.68
74561;BME280;62979;55.720;37.606;2023-06-14T03:14:03;100166.00;;;20.21;37.77
74561;BME280;62979;55.720;37.606;2023-06-14T03:16:32;100159.84;;;20.20;37.62
74561;BME280;62979;55.720;37.606;2023-06-14T03:18:59;100168.22;;;20.28;37.12
74561;BME280;62979;55.720;37.606;2023-06-14T03:21:26;100164.66;;;20.29;37.23
74561;BME280;62979;55.720;37.606;2023-06-14T03:23:55;100156.56;;;20.31;37.17
74561;BME280;62979;55.720;37.606;2023-06-14T03:26:22;100152.22;;;20.30;37.29
74561;BME280;62979;55.720;37.606;2023-06-14T03:28:49;100154.69;;;20.33;37.15
74561;BME280;62979;55.720;37.606;2023-06-14T03:31:15;100147.69;;;20.32;37.18
74561;BME280;62979;55.720;37.606;2023-06-14T03:33:42;100154.34;;;20.39;37.33
74561;BME280;62979;55.720;37.606;2023-06-14T03:36:09;100164.34;;;20.50;37.49
74561;BME280;62979;55.720;37.606;2023-06-14T03:38:36;100153.81;;;20.48;36.77
74561;BME280;62979;55.720;37.606;2023-06-14T03:41:04;100151.91;;;20.50;36.97
74561;BME280;62979;55.720;37.606;2023-06-14T03:43:31;100150.78;;;20.55;36.77
74561;BME280;62979;55.720;37.606;2023-06-14T03:45:58;100155.59;;;20.64;36.73
74561;BME280;62979;55.720;37.606;2023-06-14T03:48:25;100160.53;;;20.70;36.54
74561;BME280;62979;55.720;37.606;2023-06-14T03:50:52;100155.34;;;20.68;36.53
74561;BME280;62979;55.720;37.606;2023-06-14T03:53:20;100155.06;;;20.73;36.36
74561;BME280;62979;55.720;37.606;2023-06-14T03:55:48;100153.25;;;20.73;36.27
74561;BME280;62979;55.720;37.606;2023-06-14T03:58:19;100163.34;;;20.83;36.12
74561;BME280;62979;55.720;37.606;2023-06-14T04:00:46;100166.41;;;20.91;36.07
74561;BME280;62979;55.720;37.606;2023-06-14T04:03:13;100164.69;;;20.90;35.86
74561;BME280;62979;55.720;37.606;2023-06-14T04:05:40;100158.34;;;20.92;35.89
74561;BME280;62979;55.720;37.606;2023-06-14T04:08:08;100153.03;;;20.92;35.53
74561;BME280;62979;55.720;37.606;2023-06-14T04:10:35;100159.50;;;21.03;35.48
74561;BME280;62979;55.720;37.606;2023-06-14T04:13:02;100153.97;;;21.06;35.58
74561;BME280;62979;55.720;37.606;2023-06-14T04:15:31;100150.00;;;21.13;35.70
74561;BME280;62979;55.720;37.606;2023-06-14T04:17:58;100156.66;;;21.20;35.61
74561;BME280;62979;55.720;37.606;2023-06-14T04:20:24;100164.25;;;21.26;35.21
74561;BME280;62979;55.720;37.606;2023-06-14T04:22:53;100152.88;;;21.24;35.14
74561;BME280;62979;55.720;37.606;2023-06-14T04:25:22;100145.63;;;21.26;35.51
74561;BME280;62979;55.720;37.606;2023-06-14T04:27:51;100164.44;;;21.37;35.81
74561;BME280;62979;55.720;37.606;2023-06-14T04:30:18;100166.19;;;21.38;36.31
74561;BME280;62979;55.720;37.606;2023-06-14T04:32:48;100160.13;;;21.51;36.88
74561;BME280;62979;55.720;37.606;2023-06-14T04:35:18;100159.44;;;21.62;36.20
74561;BME280;62979;55.720;37.606;2023-06-14T04:37:45;100153.16;;;21.63;36.00
74561;BME280;62979;55.720;37.606;2023-06-14T04:40:12;100143.19;;;21.66;35.55
74561;BME280;62979;55.720;37.606;2023-06-14T04:42:39;100153.72;;;21.68;35.01
74561;BME280;62979;55.720;37.606;2023-06-14T04:45:10;100156.84;;;21.74;35.35
74561;BME280;62979;55.720;37.606;2023-06-14T04:47:38;100153.97;;;21.77;35.46
74561;BME280;62979;55.720;37.606;2023-06-14T04:50:07;100152.84;;;21.82;34.69
74561;BME280;62979;55.720;37.606;2023-06-14T04:52:35;100162.25;;;21.87;35.13
74561;BME280;62979;55.720;37.606;2023-06-14T04:55:02;100153.59;;;21.84;34.60
74561;BME280;62979;55.720;37.606;2023-06-14T04:57:30;100156.84;;;21.74;33.86
74561;BME280;62979;55.720;37.606;2023-06-14T04:59:57;100156.66;;;21.77;34.40
74561;BME280;62979;55.720;37.606;2023-06-14T05:02:26;100143.44;;;21.76;33.40
74561;BME280;62979;55.720;37.606;2023-06-14T05:04:56;100155.22;;;21.86;33.77
74561;BME280;62979;55.720;37.606;2023-06-14T05:07:24;100150.44;;;21.91;33.66
74561;BME280;62979;55.720;37.606;2023-06-14T05:09:51;100154.34;;;22.00;33.68
74561;BME280;62979;55.720;37.606;2023-06-14T05:12:18;100153.16;;;22.04;33.77
74561;BME280;62979;55.720;37.606;2023-06-14T05:14:45;100154.47;;;22.11;33.98
74561;BME280;62979;55.720;37.606;2023-06-14T05:17:12;100153.13;;;22.18;34.05
74561;BME280;62979;55.720;37.606;2023-06-14T05:19:39;100143.81;;;22.26;33.77
74561;BME280;62979;55.720;37.606;2023-06-14T05:22:06;100141.59;;;22.32;33.37
74561;BME280;62979;55.720;37.606;2023-06-14T05:24:34;100138.84;;;22.34;33.05
74561;BME280;62979;55.720;37.606;2023-06-14T05:27:01;100136.19;;;22.34;32.83
74561;BME280;62979;55.720;37.606;2023-06-14T05:29:28;100151.00;;;22.38;33.23
74561;BME280;62979;55.720;37.606;2023-06-14T05:31:55;100139.41;;;22.39;33.23
74561;BME280;62979;55.720;37.606;2023-06-14T05:34:22;100145.66;;;22.38;32.40
74561;BME280;62979;55.720;37.606;2023-06-14T05:36:49;100141.50;;;22.34;33.06
74561;BME280;62979;55.720;37.606;2023-06-14T05:39:15;100146.09;;;22.32;32.16
74561;BME280;62979;55.720;37.606;2023-06-14T05:41:44;100143.50;;;22.30;32.12
74561;BME280;62979;55.720;37.606;2023-06-14T05:44:11;100148.00;;;22.30;31.88
74561;BME280;62979;55.720;37.606;2023-06-14T05:46:37;100142.25;;;22.36;32.08
74561;BME280;62979;55.720;37.606;2023-06-14T05:49:05;100147.19;;;22.42;31.65
74561;BME280;62979;55.720;37.606;2023-06-14T05:51:32;100146.22;;;22.43;31.09
74561;BME280;62979;55.720;37.606;2023-06-14T05:53:59;100154.88;;;22.47;30.96
74561;BME280;62979;55.720;37.606;2023-06-14T05:56:26;100151.13;;;22.49;30.77
74561;BME280;62979;55.720;37.606;2023-06-14T05:58:54;100148.25;;;22.52;30.51
74561;BME280;62979;55.720;37.606;2023-06-14T06:01:21;100154.34;;;22.54;31.59
74561;BME280;62979;55.720;37.606;2023-06-14T06:03:48;100147.63;;;22.49;30.28
74561;BME280;62979;55.720;37.606;2023-06-14T06:06:15;100150.00;;;22.53;31.10
74561;BME280;62979;55.720;37.606;2023-06-14T06:08:42;100148.81;;;22.57;31.27
74561;BME280;62979;55.720;37.606;2023-06-14T06:11:09;100151.03;;;22.51;31.16
74561;BME280;62979;55.720;37.606;2023-06-14T06:13:38;100140.06;;;22.55;30.87
74561;BME280;62979;55.720;37.606;2023-06-14T06:16:07;100145.94;;;22.60;30.70
74561;BME280;62979;55.720;37.606;2023-06-14T06:18:34;100147.31;;;22.53;29.74
74561;BME280;62979;55.720;37.606;2023-06-14T06:21:01;100157.47;;;22.61;29.70
74561;BME280;62979;55.720;37.606;2023-06-14T06:23:29;100138.69;;;22.62;29.38
74561;BME280;62979;55.720;37.606;2023-06-14T06:25:56;100141.50;;;22.74;29.82
74561;BME280;62979;55.720;37.606;2023-06-14T06:28:23;100136.69;;;22.79;29.27
74561;BME280;62979;55.720;37.606;2023-06-14T06:30:50;100142.16;;;22.90;29.54
74561;BME280;62979;55.720;37.606;2023-06-14T06:33:18;100148.78;;;22.97;29.32
74561;BME280;62979;55.720;37.606;2023-06-14T06:35:45;100135.84;;;22.91;28.51
74561;BME280;62979;55.720;37.606;2023-06-14T06:38:12;100138.53;;;22.91;28.11
74561;BME280;62979;55.720;37.606;2023-06-14T06:40:39;100132.97;;;22.94;28.73
74561;BME280;62979;55.720;37.606;2023-06-14T06:43:06;100142.56;;;22.97;28.58
74561;BME280;62979;55.720;37.606;2023-06-14T06:45:33;100141.34;;;23.02;28.32
74561;BME280;62979;55.720;37.606;2023-06-14T06:48:00;100139.97;;;23.10;28.63
74561;BME280;62979;55.720;37.606;2023-06-14T06:50:28;100149.25;;;23.17;28.49
74561;BME280;62979;55.720;37.606;2023-06-14T06:52:55;100138.56;;;23.17;28.30
74561;BME280;62979;55.720;37.606;2023-06-14T06:55:22;100136.84;;;23.28;28.06
74561;BME280;62979;55.720;37.606;2023-06-14T06:57:49;100143.56;;;23.34;28.05
74561;BME280;62979;55.720;37.606;2023-06-14T07:00:18;100143.13;;;23.40;27.42
74561;BME280;62979;55.720;37.606;2023-06-14T07:02:45;100140.91;;;23.34;27.18
74561;BME280;62979;55.720;37.606;2023-06-14T07:05:13;100144.72;;;23.43;28.00
74561;BME280;62979;55.720;37.606;2023-06-14T07:07:41;100137.16;;;23.37;27.63
74561;BME280;62979;55.720;37.606;2023-06-14T07:10:08;100120.41;;;23.35;27.83
74561;BME280;62979;55.720;37.606;2023-06-14T07:12:35;100133.84;;;23.46;27.89
74561;BME280;62979;55.720;37.606;2023-06-14T07:15:06;100133.63;;;23.49;27.63
74561;BME280;62979;55.720;37.606;2023-06-14T07:17:34;100130.63;;;23.54;28.23
74561;BME280;62979;55.720;37.606;2023-06-14T07:20:02;100129.75;;;23.53;28.91
74561;BME280;62979;55.720;37.606;2023-06-14T07:22:33;100134.66;;;23.59;27.51
74561;BME280;62979;55.720;37.606;2023-06-14T07:25:01;100137.75;;;23.66;28.28
74561;BME280;62979;55.720;37.606;2023-06-14T07:27:29;100135.94;;;23.66;27.58
74561;BME280;62979;55.720;37.606;2023-06-14T07:29:56;100125.69;;;23.60;27.24
74561;BME280;62979;55.720;37.606;2023-06-14T07:32:23;100128.03;;;23.78;27.46
74561;BME280;62979;55.720;37.606;2023-06-14T07:34:49;100129.41;;;23.83;27.10
74561;BME280;62979;55.720;37.606;2023-06-14T07:37:16;100132.31;;;23.80;27.60
74561;BME280;62979;55.720;37.606;2023-06-14T07:39:44;100116.56;;;23.88;27.67
74561;BME280;62979;55.720;37.606;2023-06-14T07:42:13;100119.75;;;23.93;27.59
74561;BME280;62979;55.720;37.606;2023-06-14T07:44:40;100120.59;;;23.94;27.53
74561;BME280;62979;55.720;37.606;2023-06-14T07:47:07;100131.59;;;24.02;27.36
74561;BME280;62979;55.720;37.606;2023-06-14T07:49:34;100110.50;;;24.10;27.60
74561;BME280;62979;55.720;37.606;2023-06-14T07:52:01;100118.78;;;24.19;26.95
74561;BME280;62979;55.720;37.606;2023-06-14T07:54:28;100114.19;;;24.21;28.01
74561;BME280;62979;55.720;37.606;2023-06-14T07:56:55;100112.88;;;24.26;27.57
74561;BME280;62979;55.720;37.606;2023-06-14T07:59:24;100115.03;;;24.21;26.60
74561;BME280;62979;55.720;37.606;2023-06-14T08:01:51;100119.94;;;24.27;28.18
74561;BME280;62979;55.720;37.606;2023-06-14T08:04:18;100116.31;;;24.40;26.75
74561;BME280;62979;55.720;37.606;2023-06-14T08:06:45;100131.13;;;24.56;26.08
74561;BME280;62979;55.720;37.606;2023-06-14T08:09:13;100117.66;;;24.58;25.97
74561;BME280;62979;55.720;37.606;2023-06-14T08:11:41;100108.91;;;24.43;26.08
74561;BME280;62979;55.720;37.606;2023-06-14T08:14:08;100123.94;;;24.57;26.86
74561;BME280;62979;55.720;37.606;2023-06-14T08:16:37;100121.28;;;24.57;27.44
74561;BME280;62979;55.720;37.606;2023-06-14T08:19:03;100109.53;;;24.71;26.92
74561;BME280;62979;55.720;37.606;2023-06-14T08:21:30;100101.16;;;24.87;26.90
74561;BME280;62979;55.720;37.606;2023-06-14T08:23:59;100125.03;;;25.01;26.58
74561;BME280;62979;55.720;37.606;2023-06-14T08:26:26;100107.84;;;24.81;25.58
74561;BME280;62979;55.720;37.606;2023-06-14T08:28:54;100114.88;;;24.71;25.91
74561;BME280;62979;55.720;37.606;2023-06-14T08:31:21;100116.38;;;24.86;26.67
74561;BME280;62979;55.720;37.606;2023-06-14T08:33:50;100121.16;;;25.05;26.69
74561;BME280;62979;55.720;37.606;2023-06-14T08:36:17;100124.06;;;25.13;27.47
74561;BME280;62979;55.720;37.606;2023-06-14T08:38:44;100128.22;;;25.29;25.34
74561;BME280;62979;55.720;37.606;2023-06-14T08:41:12;100132.38;;;25.33;26.09
74561;BME280;62979;55.720;37.606;2023-06-14T08:43:45;100126.31;;;25.42;26.07
74561;BME280;62979;55.720;37.606;2023-06-14T08:46:14;100121.66;;;25.55;26.05
74561;BME280;62979;55.720;37.606;2023-06-14T08:48:46;100102.16;;;25.65;25.79
74561;BME280;62979;55.720;37.606;2023-06-14T08:51:18;100100.97;;;25.57;24.86
74561;BME280;62979;55.720;37.606;2023-06-14T08:53:51;100101.22;;;25.66;24.58
74561;BME280;62979;55.720;37.606;2023-06-14T08:56:24;100096.97;;;25.63;25.87
74561;BME280;62979;55.720;37.606;2023-06-14T08:58:52;100096.31;;;25.71;25.86
74561;BME280;62979;55.720;37.606;2023-06-14T09:01:20;100103.88;;;25.66;26.52
74561;BME280;62979;55.720;37.606;2023-06-14T09:03:48;100096.69;;;25.66;25.13
74561;BME280;62979;55.720;37.606;2023-06-14T09:06:17;100091.50;;;25.53;25.24
74561;BME280;62979;55.720;37.606;2023-06-14T09:08:48;100099.59;;;25.74;25.23
74561;BME280;62979;55.720;37.606;2023-06-14T09:11:15;100092.28;;;25.76;26.10
74561;BME280;62979;55.720;37.606;2023-06-14T09:13:44;100101.66;;;25.93;25.69
74561;BME280;62979;55.720;37.606;2023-06-14T09:16:12;100084.59;;;25.94;25.45
74561;BME280;62979;55.720;37.606;2023-06-14T09:18:40;100080.19;;;26.04;24.33
74561;BME280;62979;55.720;37.606;2023-06-14T09:21:09;100084.91;;;26.12;24.48
74561;BME280;62979;55.720;37.606;2023-06-14T09:23:40;100082.78;;;26.27;24.54
74561;BME280;62979;55.720;37.606;2023-06-14T09:26:09;100074.59;;;26.29;24.54
74561;BME280;62979;55.720;37.606;2023-06-14T09:28:41;100077.94;;;26.42;23.74
74561;BME280;62979;55.720;37.606;2023-06-14T09:31:11;100080.03;;;26.38;24.96
74561;BME280;62979;55.720;37.606;2023-06-14T09:33:41;100083.03;;;26.45;25.18
74561;BME280;62979;55.720;37.606;2023-06-14T09:36:15;100086.06;;;26.52;23.75
74561;BME280;62979;55.720;37.606;2023-06-14T09:38:51;100069.69;;;26.66;23.17
74561;BME280;62979;55.720;37.606;2023-06-14T09:41:18;100084.06;;;26.86;23.60
74561;BME280;62979;55.720;37.606;2023-06-14T09:43:46;100070.72;;;27.05;22.84
74561;BME280;62979;55.720;37.606;2023-06-14T09:46:15;100074.47;;;27.14;22.86
74561;BME280;62979;55.720;37.606;2023-06-14T09:48:42;100078.94;;;27.35;23.28
74561;BME280;62979;55.720;37.606;2023-06-14T09:51:13;100073.56;;;27.85;22.68
74561;BME280;62979;55.720;37.606;2023-06-14T09:53:42;100067.22;;;27.95;22.09
74561;BME280;62979;55.720;37.606;2023-06-14T09:56:14;100072.91;;;28.22;22.58
74561;BME280;62979;55.720;37.606;2023-06-14T09:58:48;100059.44;;;28.51;21.67
74561;BME280;62979;55.720;37.606;2023-06-14T10:01:20;100065.16;;;28.95;21.20
74561;BME280;62979;55.720;37.606;2023-06-14T10:03:50;100058.25;;;29.20;20.68
74561;BME280;62979;55.720;37.606;2023-06-14T10:06:23;100056.19;;;29.69;20.75
74561;BME280;62979;55.720;37.606;2023-06-14T10:08:56;100052.28;;;30.17;20.16
74561;BME280;62979;55.720;37.606;2023-06-14T10:11:26;100051.47;;;30.43;19.81
74561;BME280;62979;55.720;37.606;2023-06-14T10:13:55;100035.94;;;30.89;19.26
74561;BME280;62979;55.720;37.606;2023-06-14T10:16:26;100044.63;;;31.01;18.73
74561;BME280;62979;55.720;37.606;2023-06-14T10:19:04;100040.50;;;31.23;19.24
74561;BME280;62979;55.720;37.606;2023-06-14T10:21:43;100034.88;;;31.42;18.71
74561;BME280;62979;55.720;37.606;2023-06-14T10:24:29;100029.84;;;31.64;18.73
74561;BME280;62979;55.720;37.606;2023-06-14T10:27:00;100038.91;;;32.22;18.19
74561;BME280;62979;55.720;37.606;2023-06-14T10:29:27;100033.16;;;32.49;17.17
74561;BME280;62979;55.720;37.606;2023-06-14T10:31:58;100032.59;;;32.78;17.96
74561;BME280;62979;55.720;37.606;2023-06-14T10:34:28;100037.81;;;32.88;17.35
74561;BME280;62979;55.720;37.606;2023-06-14T10:37:01;100035.06;;;33.13;17.29
74561;BME280;62979;55.720;37.606;2023-06-14T10:39:33;100025.75;;;32.99;17.14
74561;BME280;62979;55.720;37.606;2023-06-14T10:42:07;100033.13;;;33.30;17.08
74561;BME280;62979;55.720;37.606;2023-06-14T10:44:45;100033.47;;;33.89;17.00
74561;BME280;62979;55.720;37.606;2023-06-14T10:47:27;100016.75;;;34.00;16.44
74561;BME280;62979;55.720;37.606;2023-06-14T10:49:56;100026.19;;;34.13;16.58
74561;BME280;62979;55.720;37.606;2023-06-14T10:52:32;100025.16;;;34.14;16.04
74561;BME280;62979;55.720;37.606;2023-06-14T10:55:09;100014.47;;;34.50;16.21
74561;BME280;62979;55.720;37.606;2023-06-14T10:57:41;100010.69;;;34.74;15.22
74561;BME280;62979;55.720;37.606;2023-06-14T11:00:10;100006.56;;;34.78;15.50
74561;BME280;62979;55.720;37.606;2023-06-14T11:05:51;100001.84;;;35.02;14.87
74561;BME280;62979;55.720;37.606;2023-06-14T11:08:40;99995.50;;;35.24;14.59
74561;BME280;62979;55.720;37.606;2023-06-14T11:11:31;100008.34;;;35.52;15.04
74561;BME280;62979;55.720;37.606;2023-06-14T11:14:01;100016.78;;;35.57;14.29
74561;BME280;62979;55.720;37.606;2023-06-14T11:16:28;100002.72;;;35.68;14.96
74561;BME280;62979;55.720;37.606;2023-06-14T11:18:57;100007.78;;;35.93;14.72
74561;BME280;62979;55.720;37.606;2023-06-14T11:21:24;100002.25;;;36.08;14.00
74561;BME280;62979;55.720;37.606;2023-06-14T11:23:56;99996.59;;;36.31;14.23
74561;BME280;62979;55.720;37.606;2023-06-14T11:26:27;99998.13;;;36.40;13.99
74561;BME280;62979;55.720;37.606;2023-06-14T11:28:56;99997.38;;;36.25;14.15
74561;BME280;62979;55.720;37.606;2023-06-14T11:31:26;100008.78;;;36.35;14.60
74561;BME280;62979;55.720;37.606;2023-06-14T11:33:54;100003.00;;;36.79;13.81
74561;BME280;62979;55.720;37.606;2023-06-14T11:36:22;99999.91;;;37.24;13.82
74561;BME280;62979;55.720;37.606;2023-06-14T11:38:49;100007.91;;;37.32;13.93
74561;BME280;62979;55.720;37.606;2023-06-14T11:41:16;100004.44;;;37.65;13.22
74561;BME280;62979;55.720;37.606;2023-06-14T11:43:43;100004.50;;;37.78;13.00
74561;BME280;62979;55.720;37.606;2023-06-14T11:46:14;99998.94;;;37.52;13.36
74561;BME280;62979;55.720;37.606;2023-06-14T11:48:44;99999.63;;;37.67;13.06
74561;BME280;62979;55.720;37.606;2023-06-14T11:51:11;99988.78;;;38.20;12.51
74561;BME280;62979;55.720;37.606;2023-06-14T11:53:38;99985.81;;;38.28;12.41
74561;BME280;62979;55.720;37.606;2023-06-14T11:56:05;99981.41;;;37.87;13.19
74561;BME280;62979;55.720;37.606;2023-06-14T11:58:33;99986.88;;;38.01;12.87
74561;BME280;62979;55.720;37.606;2023-06-14T12:01:00;99980.59;;;38.47;13.04
74561;BME280;62979;55.720;37.606;2023-06-14T12:03:30;99975.00;;;38.87;12.46
74561;BME280;62979;55.720;37.606;2023-06-14T12:06:08;99970.75;;;39.04;12.02
74561;BME280;62979;55.720;37.606;2023-06-14T12:08:36;99969.97;;;38.90;12.56
74561;BME280;62979;55.720;37.606;2023-06-14T12:11:06;99971.19;;;39.01;12.33
74561;BME280;62979;55.720;37.606;2023-06-14T12:13:37;99967.13;;;39.55;12.15
74561;BME280;62979;55.720;37.606;2023-06-14T12:16:06;99968.72;;;39.70;11.88
74561;BME280;62979;55.720;37.606;2023-06-14T12:18:35;99951.13;;;40.09;11.28
74561;BME280;62979;55.720;37.606;2023-06-14T12:21:04;99964.09;;;40.27;11.20
74561;BME280;62979;55.720;37.606;2023-06-14T12:23:46;99946.28;;;40.11;11.64
74561;BME280;62979;55.720;37.606;2023-06-14T12:26:14;99967.75;;;39.89;11.57
74561;BME280;62979;55.720;37.606;2023-06-14T12:28:44;99964.47;;;39.80;11.76
74561;BME280;62979;55.720;37.606;2023-06-14T12:31:12;99962.06;;;39.91;11.75
74561;BME280;62979;55.720;37.606;2023-06-14T12:33:41;99943.69;;;40.16;11.05
74561;BME280;62979;55.720;37.606;2023-06-14T12:36:11;99952.38;;;40.57;10.98
74561;BME280;62979;55.720;37.606;2023-06-14T12:38:38;99944.44;;;40.30;11.33
74561;BME280;62979;55.720;37.606;2023-06-14T12:41:06;99950.94;;;40.54;10.91
74561;BME280;62979;55.720;37.606;2023-06-14T12:43:34;99942.50;;;40.74;11.10
74561;BME280;62979;55.720;37.606;2023-06-14T12:46:00;99949.31;;;41.02;10.59
74561;BME280;62979;55.720;37.606;2023-06-14T12:48:27;99944.22;;;40.75;10.55
74561;BME280;62979;55.720;37.606;2023-06-14T12:50:56;99947.66;;;40.27;11.02